Time;durP1;ratioP1;P1;durP2;ratioP2;P2;SDS_P1;SDS_P2;PMS_P1;PMS_P2;Temp;Humidity;BMP_temperature;BMP_pressure;BME280_temperature;BME280_humidity;BME280_pressure;Samples;Min_cycle;Max_cycle;Signal;HPM_P1;HPM_P2
2022/03/29 00:02:05;;;;;;;0.60;0.60;;;;;;;-0.64;82.17;96765.00;4959603;28;20062;-82
2022/03/29 00:04:32;;;;;;;0.60;0.60;;;;;;;-0.59;82.31;96770.41;4975350;28;20057;-82
2022/03/29 00:07:00;;;;;;;0.68;0.68;;;;;;;-0.63;82.46;96763.16;4958670;28;20075;-83
2022/03/29 00:09:27;;;;;;;0.70;0.70;;;;;;;-0.67;82.68;96771.56;4976531;28;20047;-82
2022/03/29 00:11:57;;;;;;;0.57;0.57;;;;;;;-0.66;82.79;96775.84;4976460;28;20097;-82
2022/03/29 00:14:41;;;;;;;0.60;0.60;;;;;;;-0.63;82.81;96779.88;4958949;28;20042;-82
2022/03/29 00:20:54;;;;;;;0.70;0.70;;;;;;;-0.65;82.83;96781.94;4976408;28;20045;-83
2022/03/29 00:23:21;;;;;;;0.65;0.65;;;;;;;-0.61;82.74;96785.72;4977445;28;20105;-82
2022/03/29 00:25:50;;;;;;;0.70;0.70;;;;;;;-0.59;82.65;96785.50;4958808;28;20465;-81
2022/03/29 00:28:22;;;;;;;0.75;0.75;;;;;;;-0.59;82.82;96781.00;4976358;28;20533;-82
2022/03/29 00:30:52;;;;;;;0.70;0.70;;;;;;;-0.54;82.85;96786.44;4976654;28;20113;-82
2022/03/29 00:33:20;;;;;;;0.80;0.80;;;;;;;-0.57;82.66;96780.81;4976758;28;20054;-82
2022/03/29 00:35:47;;;;;;;0.80;0.80;;;;;;;-0.55;82.37;96778.72;4959187;28;20054;-82
2022/03/29 00:38:14;;;;;;;0.60;0.60;;;;;;;-0.53;82.40;96779.28;4970702;28;20099;-82
2022/03/29 00:40:41;;;;;;;0.77;0.77;;;;;;;-0.51;82.26;96777.22;4955989;28;20426;-83
2022/03/29 00:43:10;;;;;;;0.70;0.70;;;;;;;-0.63;82.43;96785.16;4953026;29;20142;-83
2022/03/29 00:45:38;;;;;;;0.60;0.60;;;;;;;-0.60;82.47;96784.72;4952118;29;20051;-82
2022/03/29 00:48:08;;;;;;;0.70;0.70;;;;;;;-0.51;81.58;96783.31;4953831;29;20074;-82
2022/03/29 00:50:38;;;;;;;0.80;0.80;;;;;;;-0.52;81.52;96797.63;4956405;29;20422;-82
2022/03/29 00:53:06;;;;;;;0.50;0.50;;;;;;;-0.46;81.45;96786.13;4956511;29;20071;-83
2022/03/29 00:55:36;;;;;;;0.68;0.68;;;;;;;-0.49;81.40;96778.59;4956614;29;20051;-82
2022/03/29 00:58:06;;;;;;;0.60;0.60;;;;;;;-0.40;81.18;96794.19;4940126;29;20053;-82
2022/03/29 01:00:35;;;;;;;0.77;0.77;;;;;;;-0.41;81.01;96793.38;4956718;28;20470;-82
2022/03/29 01:03:03;;;;;;;0.60;0.60;;;;;;;-0.42;81.12;96775.06;4955827;29;20051;-83
2022/03/29 01:05:31;;;;;;;0.60;0.60;;;;;;;-0.39;80.79;96779.91;4955817;29;20051;-82
2022/03/29 01:08:01;;;;;;;0.65;0.65;;;;;;;-0.47;80.81;96779.19;4956247;29;20083;-82
2022/03/29 01:10:29;;;;;;;0.60;0.60;;;;;;;-0.55;81.16;96784.84;4956045;29;20502;-82
2022/03/29 01:13:00;;;;;;;0.60;0.60;;;;;;;-0.56;81.09;96782.41;4951692;29;20059;-82
2022/03/29 01:15:27;;;;;;;0.60;0.60;;;;;;;-0.54;80.88;96767.88;4955487;29;20047;-82
2022/03/29 01:17:55;;;;;;;0.70;0.70;;;;;;;-0.56;80.31;96772.59;4951134;29;20056;-82
2022/03/29 01:20:27;;;;;;;0.65;0.65;;;;;;;-0.63;80.63;96787.00;4954889;29;20373;-81
2022/03/29 01:22:56;;;;;;;0.77;0.77;;;;;;;-0.77;81.05;96778.44;4955560;29;20082;-81
2022/03/29 01:25:26;;;;;;;0.70;0.70;;;;;;;-0.95;81.61;96772.19;4955875;29;20051;-83
2022/03/29 01:27:53;;;;;;;0.77;0.77;;;;;;;-1.01;82.41;96775.72;4955896;29;20637;-82
2022/03/29 01:30:22;;;;;;;0.70;0.70;;;;;;;-1.04;82.15;96778.00;4938227;29;20137;-81
2022/03/29 01:32:54;;;;;;;0.70;0.70;;;;;;;-0.96;82.22;96777.69;4956086;29;20067;-82
2022/03/29 01:35:25;;;;;;;0.80;0.80;;;;;;;-0.89;81.71;96776.59;4947777;29;20314;-83
2022/03/29 01:37:54;;;;;;;0.80;0.80;;;;;;;-0.81;81.47;96785.22;4970118;29;20114;-83
2022/03/29 01:40:23;;;;;;;0.70;0.70;;;;;;;-0.80;81.21;96785.00;4963832;29;20051;-84
2022/03/29 01:42:56;;;;;;;0.60;0.60;;;;;;;-0.76;80.99;96790.66;4955509;29;20051;-84
2022/03/29 01:45:28;;;;;;;0.55;0.55;;;;;;;-0.74;80.93;96784.09;4954217;29;20126;-82
2022/03/29 01:47:55;;;;;;;0.70;0.70;;;;;;;-0.74;80.87;96788.59;4954729;29;20058;-82
2022/03/29 01:50:22;;;;;;;0.60;0.60;;;;;;;-0.70;80.83;96795.06;4941575;29;20096;-82
2022/03/29 01:52:49;;;;;;;0.50;0.50;;;;;;;-0.68;80.84;96787.69;4943685;29;20077;-82
2022/03/29 01:55:18;;;;;;;0.80;0.80;;;;;;;-0.67;80.73;96784.00;4924565;29;20075;-82
2022/03/29 01:57:46;;;;;;;0.50;0.50;;;;;;;-0.72;80.83;96789.97;4937047;29;20058;-82
2022/03/29 02:00:38;;;;;;;0.60;0.60;;;;;;;-0.78;80.92;96792.75;4930844;29;20071;-83
2022/03/29 02:03:06;;;;;;;0.65;0.65;;;;;;;-0.79;81.18;96788.47;4938892;29;20061;-86
2022/03/29 02:05:34;;;;;;;0.50;0.50;;;;;;;-0.78;80.96;96785.59;4938105;29;20056;-85
2022/03/29 02:08:07;;;;;;;0.65;0.65;;;;;;;-0.74;80.81;96788.59;4934504;29;20051;-84
2022/03/29 02:10:34;;;;;;;0.70;0.70;;;;;;;-0.69;80.30;96794.00;4919317;29;20075;-86
2022/03/29 02:13:02;;;;;;;0.70;0.70;;;;;;;-0.69;80.27;96801.97;4919468;29;20048;-86
2022/03/29 02:15:29;;;;;;;0.73;0.73;;;;;;;-0.68;80.36;96790.34;4936162;29;20047;-88
2022/03/29 02:17:56;;;;;;;0.80;0.80;;;;;;;-0.71;80.50;96804.03;4937639;29;20075;-84
2022/03/29 02:20:25;;;;;;;0.60;0.60;;;;;;;-0.69;80.16;96807.25;4934869;29;20066;-82
2022/03/29 02:22:52;;;;;;;0.43;0.43;;;;;;;-0.80;80.48;96805.41;4936659;29;20111;-82
2022/03/29 02:25:19;;;;;;;0.88;0.88;;;;;;;-0.88;80.89;96804.66;4945700;29;20052;-84
2022/03/29 02:27:46;;;;;;;0.60;0.60;;;;;;;-1.03;81.18;96798.97;4939837;29;20419;-84
2022/03/29 02:30:15;;;;;;;0.65;0.65;;;;;;;-1.06;81.45;96811.84;4938397;29;20118;-84
2022/03/29 02:32:43;;;;;;;0.60;0.60;;;;;;;-1.20;81.83;96797.97;4940950;29;20423;-85
2022/03/29 02:35:11;;;;;;;0.50;0.50;;;;;;;-1.15;81.87;96808.69;4939780;29;20346;-84
2022/03/29 02:37:39;;;;;;;0.70;0.70;;;;;;;-1.18;81.59;96820.53;4936130;29;20052;-83
2022/03/29 02:40:08;;;;;;;0.60;0.60;;;;;;;-1.23;81.85;96812.47;4935377;29;20419;-83
2022/03/29 02:42:44;;;;;;;0.50;0.50;;;;;;;-1.29;82.07;96818.66;4933023;29;20507;-83
2022/03/29 02:45:12;;;;;;;;;;;;;;;-1.22;82.17;96823.84;4933021;29;20153;-82
2022/03/29 02:47:39;;;;;;;0.50;0.50;;;;;;;-1.00;81.30;96821.53;4917594;29;19958;-83
2022/03/29 02:50:07;;;;;;;0.60;0.60;;;;;;;-0.88;80.45;96831.16;4934355;29;20056;-83
2022/03/29 02:53:00;;;;;;;0.80;0.80;;;;;;;-0.87;80.45;96821.38;4933591;29;20048;-85
2022/03/29 02:55:31;;;;;;;0.73;0.73;;;;;;;-0.88;80.46;96819.75;4918232;29;20072;-85
2022/03/29 02:57:58;;;;;;;0.68;0.68;;;;;;;-0.85;80.47;96832.53;4935177;29;20059;-83
2022/03/29 03:00:26;;;;;;;0.70;0.70;;;;;;;-0.83;80.40;96829.69;4934649;29;20052;-82
2022/03/29 03:02:55;;;;;;;0.68;0.68;;;;;;;-0.85;80.76;96829.91;4933753;29;20122;-83
2022/03/29 03:05:26;;;;;;;0.80;0.80;;;;;;;-0.78;80.53;96833.28;4938409;29;20047;-85
2022/03/29 03:07:54;;;;;;;0.63;0.63;;;;;;;-0.81;80.47;96830.25;4937150;29;20147;-85
2022/03/29 03:10:21;;;;;;;0.70;0.70;;;;;;;-0.80;80.49;96822.09;4936824;29;20047;-84
2022/03/29 03:12:49;;;;;;;0.80;0.80;;;;;;;-0.76;80.56;96827.72;4936855;29;20052;-84
2022/03/29 03:15:18;;;;;;;0.70;0.70;;;;;;;-0.79;80.24;96828.97;4936946;29;20051;-83
2022/03/29 03:17:45;;;;;;;0.80;0.80;;;;;;;-0.90;80.60;96832.41;4905590;29;20044;-84
2022/03/29 03:20:14;;;;;;;0.70;0.70;;;;;;;-1.03;80.93;96836.03;4937303;29;20051;-83
2022/03/29 03:22:42;;;;;;;0.90;0.90;;;;;;;-1.15;81.46;96843.91;4938020;29;20175;-82
2022/03/29 03:25:10;;;;;;;0.70;0.70;;;;;;;-1.22;81.86;96834.44;4938268;29;20059;-83
2022/03/29 03:27:40;;;;;;;0.70;0.70;;;;;;;-1.34;82.12;96831.75;4937415;29;20143;-86
2022/03/29 03:30:11;;;;;;;0.77;0.77;;;;;;;-1.39;82.45;96840.34;4937792;29;20110;-84
2022/03/29 03:32:39;;;;;;;0.80;0.80;;;;;;;-1.38;82.56;96836.66;4937996;29;20056;-87
2022/03/29 03:35:06;;;;;;;0.63;0.63;;;;;;;-1.25;82.19;96854.22;4939251;29;20048;-82
2022/03/29 03:37:34;;;;;;;0.60;0.60;;;;;;;-1.29;81.90;96866.31;4937921;29;20143;-88
2022/03/29 03:40:04;;;;;;;0.70;0.70;;;;;;;-1.26;81.91;96847.31;4924401;29;20107;-87
2022/03/29 03:42:31;;;;;;;0.80;0.80;;;;;;;-1.21;81.70;96852.75;4937830;29;20063;-90
2022/03/29 03:45:09;;;;;;;0.68;0.68;;;;;;;-1.08;81.44;96865.03;4939961;29;20051;-90
2022/03/29 03:47:37;;;;;;;0.80;0.80;;;;;;;-0.93;80.61;96864.63;4940435;29;20404;-88
2022/03/29 03:50:05;;;;;;;0.60;0.60;;;;;;;-0.92;80.39;96874.19;4939212;29;20106;-86
2022/03/29 03:52:33;;;;;;;0.70;0.70;;;;;;;-1.06;80.60;96865.63;4937883;29;20056;-83
2022/03/29 03:55:00;;;;;;;0.60;0.60;;;;;;;-1.06;80.99;96870.09;4937819;29;20099;-83
2022/03/29 03:57:29;;;;;;;0.50;0.50;;;;;;;-1.12;81.32;96872.59;4941682;28;20027;-91
2022/03/29 03:59:56;;;;;;;0.90;0.90;;;;;;;-1.11;81.20;96874.22;4942864;29;20047;-84
2022/03/29 04:02:24;;;;;;;0.80;0.80;;;;;;;-1.11;81.34;96879.50;4938751;29;20060;-84
2022/03/29 04:04:51;;;;;;;0.60;0.60;;;;;;;-1.10;81.45;96880.31;4938400;29;20403;-86
2022/03/29 04:07:18;;;;;;;0.70;0.70;;;;;;;-1.10;81.44;96878.47;4938728;29;20044;-85
2022/03/29 04:09:46;;;;;;;0.70;0.70;;;;;;;-1.04;81.34;96879.41;4936753;29;20052;-84
2022/03/29 04:12:13;;;;;;;0.60;0.60;;;;;;;-0.98;81.31;96878.53;4937524;29;20484;-86
2022/03/29 04:14:40;;;;;;;0.47;0.47;;;;;;;-0.97;81.07;96888.09;4940715;29;20048;-88
2022/03/29 04:17:09;;;;;;;0.60;0.60;;;;;;;-0.76;80.72;96892.13;4942331;29;20048;-87
2022/03/29 04:19:36;;;;;;;0.70;0.70;;;;;;;-0.58;80.01;96893.94;4943611;29;20140;-88
2022/03/29 04:22:06;;;;;;;0.70;0.70;;;;;;;-0.48;79.64;96883.59;4939976;29;20048;-89
2022/03/29 04:24:34;;;;;;;0.57;0.57;;;;;;;-0.39;79.10;96880.63;4941936;29;20048;-89
2022/03/29 04:27:01;;;;;;;0.80;0.80;;;;;;;-0.40;78.76;96897.56;4906394;29;20054;-90
2022/03/29 04:29:28;;;;;;;0.70;0.70;;;;;;;-0.48;79.21;96894.19;4937809;29;20438;-88
2022/03/29 04:31:56;;;;;;;0.70;0.70;;;;;;;-0.38;79.01;96909.56;4939258;29;20058;-89
2022/03/29 04:34:23;;;;;;;0.70;0.70;;;;;;;-0.38;78.72;96895.47;4938428;29;20118;-89
2022/03/29 04:36:53;;;;;;;0.80;0.80;;;;;;;-0.32;78.84;96897.22;4938540;29;20087;-89
2022/03/29 04:39:20;;;;;;;0.70;0.70;;;;;;;-0.29;78.65;96899.44;4938905;29;20515;-88
2022/03/29 04:41:51;;;;;;;0.63;0.63;;;;;;;-0.26;78.88;96893.66;4938421;29;20098;-88
2022/03/29 04:44:34;;;;;;;0.70;0.70;;;;;;;-0.07;77.88;96897.06;4943379;29;20055;-89
2022/03/29 04:47:02;;;;;;;0.80;0.80;;;;;;;0.15;77.24;96913.22;4938741;29;20056;-88
2022/03/29 04:49:29;;;;;;;0.80;0.80;;;;;;;0.41;76.10;96912.00;4943497;29;20047;-89
2022/03/29 04:51:59;;;;;;;0.70;0.70;;;;;;;0.47;75.78;96920.88;4946444;29;20162;-88
2022/03/29 04:54:27;;;;;;;0.80;0.80;;;;;;;0.51;75.66;96908.75;4947675;29;20040;-88
2022/03/29 04:56:54;;;;;;;0.82;0.82;;;;;;;0.53;75.33;96899.53;4945163;29;20083;-89
2022/03/29 04:59:24;;;;;;;0.80;0.80;;;;;;;0.58;75.07;96904.94;4944018;29;20063;-87
2022/03/29 05:01:54;;;;;;;0.65;0.65;;;;;;;0.63;74.68;96912.19;4938537;29;20056;-85
2022/03/29 05:04:25;;;;;;;0.85;0.85;;;;;;;0.72;74.58;96916.13;4939081;29;20054;-87
2022/03/29 05:06:52;;;;;;;0.70;0.70;;;;;;;0.69;74.05;96902.53;4927149;29;20056;-88
2022/03/29 05:09:19;;;;;;;0.70;0.70;;;;;;;0.80;74.18;96923.72;4946580;29;20083;-88
2022/03/29 05:11:46;;;;;;;0.70;0.70;;;;;;;0.80;73.92;96921.06;4939760;29;20051;-87
2022/03/29 05:14:14;;;;;;;0.70;0.70;;;;;;;0.77;74.02;96921.53;4938629;29;20562;-88
2022/03/29 05:16:44;;;;;;;0.60;0.60;;;;;;;0.68;74.13;96938.06;4921535;29;20443;-88
2022/03/29 05:19:11;;;;;;;0.80;0.80;;;;;;;0.60;74.20;96926.75;4936864;29;20048;-88
2022/03/29 05:21:38;;;;;;;0.80;0.80;;;;;;;0.61;74.48;96931.03;4937094;29;20067;-85
2022/03/29 05:24:06;;;;;;;0.70;0.70;;;;;;;0.68;73.96;96927.44;4937511;29;20475;-87
2022/03/29 05:26:33;;;;;;;0.70;0.70;;;;;;;0.75;74.05;96952.81;4937021;29;20434;-87
2022/03/29 05:29:00;;;;;;;0.70;0.70;;;;;;;0.86;73.41;96941.41;4935260;29;20500;-87
2022/03/29 05:31:27;;;;;;;0.73;0.73;;;;;;;0.87;73.18;96928.94;4937654;29;20067;-88
2022/03/29 05:33:54;;;;;;;0.82;0.82;;;;;;;0.91;73.25;96937.22;4919892;29;20451;-87
2022/03/29 05:36:21;;;;;;;0.70;0.70;;;;;;;0.91;73.18;96940.69;4936856;29;20052;-86
2022/03/29 05:38:54;;;;;;;0.88;0.88;;;;;;;0.97;73.02;96938.97;4939832;29;20114;-86
2022/03/29 05:41:21;;;;;;;0.80;0.80;;;;;;;1.06;72.55;96937.53;4614061;28;10000702;-87
2022/03/29 05:43:49;;;;;;;0.80;0.80;;;;;;;1.19;72.06;96945.28;4967135;29;20058;-87
2022/03/29 05:49:03;;;;;;;0.80;0.80;;;;;;;1.38;71.44;96940.59;4936755;29;20430;-85
2022/03/29 05:51:31;;;;;;;0.90;0.90;;;;;;;1.61;70.57;96930.91;4939667;29;20130;-86
2022/03/29 05:54:02;;;;;;;0.80;0.80;;;;;;;1.74;70.35;96933.28;4945352;28;20055;-86
2022/03/29 05:56:30;;;;;;;0.90;0.90;;;;;;;1.82;70.38;96935.56;4947407;29;20047;-87
2022/03/29 05:59:03;;;;;;;0.90;0.90;;;;;;;1.84;70.16;96936.13;4943709;29;20047;-87
2022/03/29 06:01:30;;;;;;;0.90;0.90;;;;;;;1.79;69.68;96935.22;4942087;29;20090;-87
2022/03/29 06:03:57;;;;;;;0.85;0.85;;;;;;;1.78;69.26;96947.72;4947848;29;20056;-87
2022/03/29 06:06:26;;;;;;;0.80;0.80;;;;;;;1.77;68.86;96929.34;4923191;29;20063;-87
2022/03/29 06:08:53;;;;;;;0.90;0.90;;;;;;;1.80;68.46;96932.34;4920440;29;20798;-89
2022/03/29 06:11:23;;;;;;;0.82;0.82;;;;;;;1.76;68.95;96936.53;4920002;29;20153;-87
2022/03/29 06:13:50;;;;;;;0.80;0.80;;;;;;;1.84;68.29;96951.28;4912132;29;20215;-86
2022/03/29 06:16:18;;;;;;;0.70;0.70;;;;;;;1.91;68.20;96950.09;4915820;29;20060;-86
2022/03/29 06:18:45;;;;;;;0.80;0.80;;;;;;;2.03;68.11;96954.56;4913723;29;20116;-87
2022/03/29 06:21:12;;;;;;;0.90;0.90;;;;;;;1.98;67.72;96957.13;4927158;29;20091;-89
2022/03/29 06:23:40;;;;;;;0.80;0.80;;;;;;;1.94;67.85;96954.13;4904948;29;20067;-89
2022/03/29 06:26:13;;;;;;;0.80;0.80;;;;;;;1.95;68.10;96955.75;4921844;29;20096;-93
2022/03/29 06:28:56;;;;;;;0.70;0.70;;;;;;;1.90;68.43;96960.94;4912492;29;20106;-89
2022/03/29 06:31:24;;;;;;;0.77;0.77;;;;;;;1.79;68.81;96965.28;4928846;29;20171;-89
2022/03/29 06:33:51;;;;;;;0.80;0.80;;;;;;;1.62;68.98;96967.09;4918035;29;20064;-87
2022/03/29 06:36:20;;;;;;;0.60;0.60;;;;;;;1.47;70.15;97008.31;4895390;29;20056;-87
2022/03/29 06:38:52;;;;;;;0.80;0.80;;;;;;;0.64;71.93;97012.06;4939877;29;20075;-88
2022/03/29 06:41:19;;;;;;;0.70;0.70;;;;;;;0.01;75.01;97021.38;4942315;29;20047;-85
2022/03/29 06:43:47;;;;;;;0.85;0.85;;;;;;;-0.15;76.31;97014.88;4948557;28;20047;-87
2022/03/29 06:46:15;;;;;;;0.90;0.90;;;;;;;-0.14;76.82;97034.22;4957231;28;20091;-88
2022/03/29 06:48:42;;;;;;;0.80;0.80;;;;;;;-0.02;76.77;97037.75;4967278;28;20055;-86
2022/03/29 06:51:16;;;;;;;0.80;0.80;;;;;;;0.06;76.04;97031.31;4947678;28;20055;-85
2022/03/29 06:53:44;;;;;;;0.80;0.80;;;;;;;0.11;75.92;97021.63;4943730;29;20060;-84
2022/03/29 06:56:15;;;;;;;0.90;0.90;;;;;;;0.35;75.82;97041.06;4935153;29;20560;-84
2022/03/29 06:58:42;;;;;;;0.73;0.73;;;;;;;0.51;75.61;97039.63;4948286;29;20118;-84
2022/03/29 07:01:09;;;;;;;0.70;0.70;;;;;;;0.55;75.04;97038.13;4938276;29;20055;-85
2022/03/29 07:03:39;;;;;;;0.77;0.77;;;;;;;0.42;75.15;97040.97;4947656;29;20529;-83
2022/03/29 07:06:06;;;;;;;0.80;0.80;;;;;;;0.57;75.55;97051.16;4947451;28;20046;-83
2022/03/29 07:08:33;;;;;;;0.80;0.80;;;;;;;0.62;74.60;97046.78;4937985;29;20059;-85
2022/03/29 07:11:17;;;;;;;0.80;0.80;;;;;;;0.56;74.26;97053.03;4945569;29;20051;-82
2022/03/29 07:13:46;;;;;;;0.90;0.90;;;;;;;0.66;74.18;97055.13;4946120;29;20212;-84
2022/03/29 07:16:14;;;;;;;0.80;0.80;;;;;;;0.83;73.47;97061.34;4937379;29;20055;-85
2022/03/29 07:19:04;;;;;;;0.70;0.70;;;;;;;0.91;72.93;97067.38;4938030;29;20051;-85
2022/03/29 07:21:33;;;;;;;;;;;;;;;1.00;73.34;97069.44;4949204;28;20051;-85
2022/03/29 07:24:06;;;;;;;0.88;0.88;;;;;;;1.24;72.71;97078.25;4946804;29;20397;-87
2022/03/29 07:26:34;;;;;;;0.75;0.75;;;;;;;1.36;72.02;97078.22;4939365;28;20640;-85
2022/03/29 07:29:04;;;;;;;0.80;0.80;;;;;;;1.16;71.37;97075.91;4934453;29;20543;-86
2022/03/29 07:31:32;;;;;;;0.80;0.80;;;;;;;1.27;71.24;97090.25;4916924;29;20078;-84
2022/03/29 07:34:00;;;;;;;0.90;0.90;;;;;;;1.33;70.21;97086.66;4954023;28;20482;-85
2022/03/29 07:36:27;;;;;;;0.75;0.75;;;;;;;1.42;70.26;97089.78;4957910;28;20047;-84
2022/03/29 07:38:55;;;;;;;0.80;0.80;;;;;;;1.08;70.51;97093.00;4966084;28;20134;-86
2022/03/29 07:41:22;;;;;;;0.80;0.80;;;;;;;0.72;71.87;97104.63;4950608;28;20095;-85
2022/03/29 07:43:49;;;;;;;0.70;0.70;;;;;;;0.50;72.56;97106.19;4938048;29;20064;-83
2022/03/29 07:46:16;;;;;;;0.65;0.65;;;;;;;0.56;73.26;97107.97;4963287;28;20054;-87
2022/03/29 07:48:45;;;;;;;0.68;0.68;;;;;;;0.71;72.84;97100.38;4970373;28;20047;-84
2022/03/29 07:51:35;;;;;;;0.90;0.90;;;;;;;0.73;72.04;97106.25;4972266;28;20050;-87
2022/03/29 07:54:03;;;;;;;0.80;0.80;;;;;;;0.64;71.80;97104.97;4969230;28;22035;-84
2022/03/29 07:56:33;;;;;;;0.65;0.65;;;;;;;0.43;71.59;97116.91;4951442;28;20133;-84
2022/03/29 07:59:01;;;;;;;0.80;0.80;;;;;;;0.13;71.72;97116.91;4973224;28;20138;-84
2022/03/29 08:01:29;;;;;;;0.80;0.80;;;;;;;0.07;72.41;97118.59;4919489;29;20048;-85
2022/03/29 08:03:56;;;;;;;0.80;0.80;;;;;;;0.04;72.79;97129.66;4959375;28;20097;-85
2022/03/29 08:06:24;;;;;;;0.70;0.70;;;;;;;0.14;72.79;97129.13;4960244;28;20055;-86
2022/03/29 08:08:53;;;;;;;0.80;0.80;;;;;;;0.42;72.90;97131.22;4952778;29;20051;-84
2022/03/29 08:11:22;;;;;;;0.80;0.80;;;;;;;0.73;72.39;97135.47;4959455;28;20522;-84
2022/03/29 08:13:49;;;;;;;0.80;0.80;;;;;;;0.91;71.37;97144.38;4965852;28;20532;-86
2022/03/29 08:16:17;;;;;;;0.80;0.80;;;;;;;0.83;70.14;97149.00;4971744;28;20490;-87
2022/03/29 08:18:44;;;;;;;0.85;0.85;;;;;;;0.83;70.44;97143.69;4939022;29;20048;-85
2022/03/29 08:24:01;;;;;;;0.82;0.82;;;;;;;1.12;68.70;97133.22;4955368;28;20058;-88
2022/03/29 08:26:31;;;;;;;0.90;0.90;;;;;;;1.39;67.40;97138.09;4957356;28;20046;-86
2022/03/29 08:28:58;;;;;;;1.00;1.00;;;;;;;1.63;66.29;97154.84;4953197;28;20106;-84
2022/03/29 08:31:26;;;;;;;0.90;0.90;;;;;;;2.15;64.73;97149.53;4970769;28;20054;-85
2022/03/29 08:33:58;;;;;;;0.90;0.90;;;;;;;2.21;64.23;97156.59;4964967;28;20063;-85
2022/03/29 08:36:28;;;;;;;1.00;1.00;;;;;;;2.29;64.34;97150.09;4973791;28;20053;-88
2022/03/29 08:38:58;;;;;;;0.98;0.98;;;;;;;2.51;63.72;97159.06;4980219;28;20506;-87
2022/03/29 08:41:26;;;;;;;1.00;1.00;;;;;;;2.85;62.52;97153.78;4965785;28;20051;-86
2022/03/29 08:43:54;;;;;;;0.90;0.90;;;;;;;3.22;61.55;97161.34;4929048;29;20061;-86
2022/03/29 08:46:22;;;;;;;0.80;0.80;;;;;;;2.92;60.43;97154.44;4908266;29;20047;-86
2022/03/29 08:48:50;;;;;;;0.80;0.80;;;;;;;2.65;61.83;97169.41;4959758;29;20592;-87
2022/03/29 08:51:18;;;;;;;0.90;0.90;;;;;;;2.51;61.90;97169.69;4955041;28;20055;-84
2022/03/29 08:54:02;;;;;;;0.80;0.80;;;;;;;2.22;61.57;97163.53;4932486;29;20413;-86
2022/03/29 08:56:29;;;;;;;0.70;0.70;;;;;;;1.89;62.31;97165.00;4921444;28;20142;-84
2022/03/29 08:58:59;;;;;;;0.77;0.77;;;;;;;1.71;62.41;97154.50;4920150;28;20047;-84
2022/03/29 09:01:27;;;;;;;0.80;0.80;;;;;;;1.77;63.23;97171.38;4949233;28;20070;-85
2022/03/29 09:04:12;;;;;;;0.80;0.80;;;;;;;1.91;64.08;97189.50;4971246;28;20465;-86
2022/03/29 09:06:56;;;;;;;0.88;0.88;;;;;;;2.25;63.96;97194.19;4973389;28;20058;-86
2022/03/29 09:09:29;;;;;;;1.00;1.00;;;;;;;2.67;63.32;97201.94;4964834;28;20081;-83
2022/03/29 09:12:08;;;;;;;0.80;0.80;;;;;;;2.62;62.96;97191.19;4958171;28;20050;-86
2022/03/29 09:14:50;;;;;;;0.88;0.88;;;;;;;2.55;63.08;97204.66;4973245;28;20515;-89
2022/03/29 09:17:32;;;;;;;0.80;0.80;;;;;;;2.47;62.82;97203.16;4961020;29;20162;-88
2022/03/29 09:20:00;;;;;;;0.88;0.88;;;;;;;2.28;62.27;97202.53;4957964;28;20082;-86
2022/03/29 09:22:43;;;;;;;0.80;0.80;;;;;;;2.31;61.99;97207.38;4959697;28;20055;-88
2022/03/29 09:25:26;;;;;;;0.80;0.80;;;;;;;2.50;62.30;97197.38;4953145;29;20051;-87
2022/03/29 09:27:57;;;;;;;0.80;0.80;;;;;;;2.66;61.50;97201.16;4949047;29;20067;-87
2022/03/29 09:30:41;;;;;;;0.82;0.82;;;;;;;2.91;60.72;97207.97;4961532;28;20561;-88
2022/03/29 09:33:12;;;;;;;1.00;1.00;;;;;;;3.73;59.07;97202.13;4956124;28;20055;-88
2022/03/29 09:35:59;;;;;;;1.38;1.27;;;;;;;5.49;54.11;97196.63;4962914;28;20070;-86
2022/03/29 09:38:37;;;;;;;1.00;1.00;;;;;;;6.62;50.88;97198.09;4983219;28;20059;-86
2022/03/29 09:41:06;;;;;;;1.30;1.20;;;;;;;7.31;49.67;97199.56;4970312;28;20094;-86
2022/03/29 09:44:21;;;;;;;1.30;1.20;;;;;;;8.65;45.87;97195.59;4951676;29;20055;-85
2022/03/29 09:46:59;;;;;;;0.80;0.80;;;;;;;7.45;46.41;97209.81;4884443;29;20057;-85
2022/03/29 09:49:29;;;;;;;0.80;0.80;;;;;;;6.38;49.30;97213.81;4903882;29;20087;-88
2022/03/29 09:52:15;;;;;;;0.80;0.80;;;;;;;5.28;49.75;97208.22;4892736;29;20333;-89
2022/03/29 09:55:03;;;;;;;0.70;0.70;;;;;;;4.53;52.01;97216.81;4914927;29;20078;-87
2022/03/29 09:57:43;;;;;;;0.80;0.80;;;;;;;3.97;53.65;97210.72;4917880;29;20056;-86
2022/03/29 10:00:19;;;;;;;0.73;0.73;;;;;;;3.90;54.80;97218.13;4918167;29;20048;-88
2022/03/29 10:02:49;;;;;;;0.63;0.63;;;;;;;3.54;54.26;97225.56;4919989;29;20052;-89
2022/03/29 10:05:18;;;;;;;0.80;0.80;;;;;;;3.15;55.08;97233.47;4920447;29;20104;-87
2022/03/29 10:07:51;;;;;;;0.80;0.80;;;;;;;2.99;55.84;97235.06;4907768;29;20052;-86
2022/03/29 10:10:19;;;;;;;0.80;0.80;;;;;;;2.75;56.16;97245.00;4912808;29;20055;-86
2022/03/29 10:12:46;;;;;;;0.73;0.73;;;;;;;2.51;57.08;97238.94;4877695;29;20056;-88
2022/03/29 10:15:37;;;;;;;0.80;0.80;;;;;;;2.56;57.36;97230.25;4886202;29;20084;-89
2022/03/29 10:18:21;;;;;;;0.80;0.80;;;;;;;2.70;57.36;97249.41;4844873;29;20164;-87
2022/03/29 10:20:52;;;;;;;0.80;0.80;;;;;;;2.45;57.53;97244.38;4841658;29;20067;-87
2022/03/29 10:23:24;;;;;;;0.70;0.70;;;;;;;2.53;57.56;97242.19;4874772;29;20110;-86
2022/03/29 10:25:53;;;;;;;0.88;0.88;;;;;;;2.47;57.74;97251.09;4912293;29;20056;-89
2022/03/29 10:28:27;;;;;;;0.93;0.93;;;;;;;2.39;57.47;97254.13;4908892;29;20528;-87
2022/03/29 10:30:57;;;;;;;0.85;0.85;;;;;;;2.49;57.60;97238.38;4904554;29;20060;-87
2022/03/29 10:33:33;;;;;;;0.77;0.77;;;;;;;2.83;56.24;97260.59;4903813;29;20053;-88
2022/03/29 10:36:02;;;;;;;;;;;;;;;2.76;56.64;97256.44;4887015;29;20052;-91
2022/03/29 10:38:47;;;;;;;0.80;0.80;;;;;;;2.76;57.03;97267.09;4908191;29;19950;-90
2022/03/29 10:41:26;;;;;;;0.90;0.90;;;;;;;2.68;57.32;97262.16;4901073;29;20079;-86
2022/03/29 10:44:08;;;;;;;0.70;0.70;;;;;;;2.56;56.61;97259.53;4915686;29;20085;-89
2022/03/29 10:46:50;;;;;;;0.80;0.80;;;;;;;2.15;57.48;97243.53;4905671;29;20121;-91
2022/03/29 10:49:34;;;;;;;0.70;0.70;;;;;;;2.13;57.89;97258.91;4939883;28;20114;-89
2022/03/29 10:52:42;;;;;;;0.80;0.80;;;;;;;2.09;58.18;97257.75;4949938;29;20067;-91
2022/03/29 10:55:40;;;;;;;0.70;0.70;;;;;;;2.06;58.47;97263.53;4891255;29;20153;-87
2022/03/29 10:58:20;;;;;;;0.70;0.70;;;;;;;2.15;58.96;97256.84;4928232;29;20048;-88
2022/03/29 11:01:13;;;;;;;0.90;0.90;;;;;;;2.30;58.41;97248.34;4907959;29;20056;-87
2022/03/29 11:04:03;;;;;;;0.90;0.90;;;;;;;2.95;57.42;97249.91;4904611;29;20052;-86
2022/03/29 11:06:30;;;;;;;0.90;0.90;;;;;;;3.18;56.14;97262.31;4933561;29;20048;-91
2022/03/29 11:09:07;;;;;;;0.80;0.80;;;;;;;2.97;56.49;97261.13;4931212;29;20040;-92
2022/03/29 11:11:39;;;;;;;0.90;0.90;;;;;;;2.90;56.59;97272.97;4930304;29;20177;-92
2022/03/29 11:14:36;;;;;;;0.80;0.80;;;;;;;2.86;56.45;97258.50;4909822;29;20116;-90
2022/03/29 11:17:21;;;;;;;0.70;0.70;;;;;;;2.55;57.43;97257.91;4919843;29;20052;-91
2022/03/29 11:20:14;;;;;;;;;;;;;;;2.35;57.75;97261.75;4913705;29;20060;-90
2022/03/29 11:22:43;;;;;;;0.88;0.88;;;;;;;2.23;58.00;97252.19;4920895;29;19927;-91
2022/03/29 11:25:14;;;;;;;0.90;0.90;;;;;;;2.32;57.90;97262.22;4908078;29;20056;-90
2022/03/29 11:27:48;;;;;;;0.75;0.75;;;;;;;2.75;57.45;97254.84;4926743;29;20091;-90
2022/03/29 11:30:22;;;;;;;0.90;0.90;;;;;;;2.96;56.28;97243.53;4934777;29;20120;-90
2022/03/29 11:32:55;;;;;;;0.90;0.90;;;;;;;3.24;55.73;97260.53;4924967;29;20067;-92
2022/03/29 11:35:42;;;;;;;0.90;0.90;;;;;;;3.13;55.53;97256.88;4911533;29;20096;-90
2022/03/29 11:38:15;;;;;;;1.00;1.00;;;;;;;3.14;56.09;97279.84;4924224;29;20076;-90
2022/03/29 11:40:43;;;;;;;0.85;0.85;;;;;;;3.29;55.30;97271.28;4935691;29;20054;-90
2022/03/29 11:43:19;;;;;;;0.85;0.85;;;;;;;3.54;54.86;97278.13;4903700;29;20044;-88
2022/03/29 11:45:51;;;;;;;0.90;0.90;;;;;;;3.93;55.30;97283.56;4936551;29;20056;-90
2022/03/29 11:48:24;;;;;;;0.85;0.85;;;;;;;4.58;54.23;97258.78;4921058;29;20048;-90
2022/03/29 11:50:57;;;;;;;0.90;0.90;;;;;;;5.15;51.30;97257.56;4936305;29;20038;-90
2022/03/29 11:53:35;;;;;;;0.70;0.70;;;;;;;4.63;52.64;97263.41;4939363;29;20060;-90
2022/03/29 11:56:09;;;;;;;0.70;0.70;;;;;;;4.44;53.96;97271.72;4919345;29;20051;-91
2022/03/29 11:58:45;;;;;;;0.70;0.70;;;;;;;4.19;54.15;97272.19;4972233;28;20027;-91
2022/03/29 12:01:18;;;;;;;0.80;0.80;;;;;;;4.04;54.36;97288.78;4940963;29;20089;-90
2022/03/29 12:03:57;;;;;;;0.73;0.73;;;;;;;3.56;54.67;97290.16;4953810;29;20074;-89
2022/03/29 12:06:27;;;;;;;0.60;0.60;;;;;;;3.37;55.42;97302.13;4975770;28;20118;-91
2022/03/29 12:09:09;;;;;;;0.68;0.68;;;;;;;2.91;56.81;97296.75;4980310;28;20082;-91